sensor_id;sensor_type;location;lat;lon;timestamp;P1;durP1;ratioP1;P2;durP2;ratioP2
63499;SDS011;49654;51.142;14.924;2024-02-23T00:00:26;2.08;;;1.77;;
63499;SDS011;49654;51.142;14.924;2024-02-23T00:02:53;1.73;;;1.50;;
63499;SDS011;49654;51.142;14.924;2024-02-23T00:05:22;2.50;;;1.63;;
63499;SDS011;49654;51.142;14.924;2024-02-23T00:07:50;2.45;;;1.70;;
63499;SDS011;49654;51.142;14.924;2024-02-23T00:10:17;1.50;;;1.40;;
63499;SDS011;49654;51.142;14.924;2024-02-23T00:12:44;1.40;;;1.20;;
63499;SDS011;49654;51.142;14.924;2024-02-23T00:15:13;2.25;;;1.60;;
63499;SDS011;49654;51.142;14.924;2024-02-23T00:17:39;1.73;;;1.38;;
63499;SDS011;49654;51.142;14.924;2024-02-23T00:20:08;2.22;;;1.30;;
63499;SDS011;49654;51.142;14.924;2024-02-23T00:22:36;2.35;;;1.42;;
63499;SDS011;49654;51.142;14.924;2024-02-23T00:25:04;2.20;;;1.60;;
63499;SDS011;49654;51.142;14.924;2024-02-23T00:27:32;1.70;;;1.50;;
63499;SDS011;49654;51.142;14.924;2024-02-23T00:29:59;1.63;;;1.30;;
63499;SDS011;49654;51.142;14.924;2024-02-23T00:32:25;3.03;;;1.40;;
63499;SDS011;49654;51.142;14.924;2024-02-23T00:34:52;1.67;;;1.58;;
63499;SDS011;49654;51.142;14.924;2024-02-23T00:37:19;1.40;;;1.30;;
63499;SDS011;49654;51.142;14.924;2024-02-23T00:39:46;1.63;;;1.35;;
63499;SDS011;49654;51.142;14.924;2024-02-23T00:42:15;2.95;;;1.48;;
63499;SDS011;49654;51.142;14.924;2024-02-23T00:44:41;1.88;;;1.35;;
63499;SDS011;49654;51.142;14.924;2024-02-23T00:47:08;1.30;;;1.20;;
63499;SDS011;49654;51.142;14.924;2024-02-23T00:49:35;1.60;;;1.40;;
63499;SDS011;49654;51.142;14.924;2024-02-23T00:52:02;2.28;;;1.25;;
63499;SDS011;49654;51.142;14.924;2024-02-23T00:54:29;1.30;;;1.20;;
63499;SDS011;49654;51.142;14.924;2024-02-23T00:56:56;1.73;;;1.10;;
63499;SDS011;49654;51.142;14.924;2024-02-23T00:59:24;1.40;;;1.27;;
63499;SDS011;49654;51.142;14.924;2024-02-23T01:01:51;1.90;;;1.30;;
63499;SDS011;49654;51.142;14.924;2024-02-23T01:04:18;1.20;;;1.10;;
63499;SDS011;49654;51.142;14.924;2024-02-23T01:06:45;1.60;;;1.33;;
63499;SDS011;49654;51.142;14.924;2024-02-23T01:09:12;3.17;;;1.38;;
63499;SDS011;49654;51.142;14.924;2024-02-23T01:11:39;1.63;;;1.13;;
63499;SDS011;49654;51.142;14.924;2024-02-23T01:14:06;1.25;;;1.15;;
63499;SDS011;49654;51.142;14.924;2024-02-23T01:16:34;1.65;;;1.20;;
63499;SDS011;49654;51.142;14.924;2024-02-23T01:19:01;1.20;;;1.10;;
63499;SDS011;49654;51.142;14.924;2024-02-23T01:21:28;1.90;;;1.33;;
63499;SDS011;49654;51.142;14.924;2024-02-23T01:23:55;1.45;;;1.25;;
63499;SDS011;49654;51.142;14.924;2024-02-23T01:26:22;1.63;;;1.30;;
63499;SDS011;49654;51.142;14.924;2024-02-23T01:28:49;1.70;;;1.60;;
63499;SDS011;49654;51.142;14.924;2024-02-23T01:31:16;1.40;;;1.30;;
63499;SDS011;49654;51.142;14.924;2024-02-23T01:33:44;3.13;;;1.40;;
63499;SDS011;49654;51.142;14.924;2024-02-23T01:36:12;1.40;;;1.30;;
63499;SDS011;49654;51.142;14.924;2024-02-23T01:38:39;2.28;;;1.48;;
63499;SDS011;49654;51.142;14.924;2024-02-23T01:41:08;1.65;;;1.55;;
63499;SDS011;49654;51.142;14.924;2024-02-23T01:43:37;2.25;;;1.10;;
63499;SDS011;49654;51.142;14.924;2024-02-23T01:46:04;1.65;;;1.33;;
63499;SDS011;49654;51.142;14.924;2024-02-23T01:48:32;1.95;;;1.30;;
63499;SDS011;49654;51.142;14.924;2024-02-23T01:51:01;1.60;;;1.27;;
63499;SDS011;49654;51.142;14.924;2024-02-23T01:53:28;2.40;;;1.30;;
63499;SDS011;49654;51.142;14.924;2024-02-23T01:55:56;1.35;;;1.17;;
63499;SDS011;49654;51.142;14.924;2024-02-23T01:58:25;1.42;;;1.30;;
63499;SDS011;49654;51.142;14.924;2024-02-23T02:00:52;1.40;;;1.20;;
63499;SDS011;49654;51.142;14.924;2024-02-23T02:03:18;1.40;;;1.25;;
63499;SDS011;49654;51.142;14.924;2024-02-23T02:05:45;1.50;;;1.40;;
63499;SDS011;49654;51.142;14.924;2024-02-23T02:08:14;1.50;;;1.30;;
63499;SDS011;49654;51.142;14.924;2024-02-23T02:10:41;2.10;;;1.27;;
63499;SDS011;49654;51.142;14.924;2024-02-23T02:13:10;1.80;;;1.40;;
63499;SDS011;49654;51.142;14.924;2024-02-23T02:15:36;1.35;;;1.25;;
63499;SDS011;49654;51.142;14.924;2024-02-23T02:18:04;1.38;;;1.27;;
63499;SDS011;49654;51.142;14.924;2024-02-23T02:20:32;1.63;;;1.27;;
63499;SDS011;49654;51.142;14.924;2024-02-23T02:22:59;1.45;;;1.23;;
63499;SDS011;49654;51.142;14.924;2024-02-23T02:25:27;3.10;;;1.30;;
63499;SDS011;49654;51.142;14.924;2024-02-23T02:27:54;1.30;;;1.20;;
63499;SDS011;49654;51.142;14.924;2024-02-23T02:30:21;2.33;;;1.20;;
63499;SDS011;49654;51.142;14.924;2024-02-23T02:32:48;1.40;;;1.30;;
63499;SDS011;49654;51.142;14.924;2024-02-23T02:35:15;1.52;;;1.00;;
63499;SDS011;49654;51.142;14.924;2024-02-23T02:37:42;1.42;;;1.23;;
63499;SDS011;49654;51.142;14.924;2024-02-23T02:40:09;1.92;;;1.45;;
63499;SDS011;49654;51.142;14.924;2024-02-23T02:42:38;1.90;;;1.27;;
63499;SDS011;49654;51.142;14.924;2024-02-23T02:45:05;2.58;;;1.60;;
63499;SDS011;49654;51.142;14.924;2024-02-23T02:47:32;1.40;;;1.20;;
63499;SDS011;49654;51.142;14.924;2024-02-23T02:49:59;2.17;;;1.33;;
63499;SDS011;49654;51.142;14.924;2024-02-23T02:52:26;1.48;;;1.00;;
63499;SDS011;49654;51.142;14.924;2024-02-23T02:54:54;2.15;;;1.30;;
63499;SDS011;49654;51.142;14.924;2024-02-23T02:57:21;3.28;;;1.38;;
63499;SDS011;49654;51.142;14.924;2024-02-23T02:59:49;1.48;;;1.20;;
63499;SDS011;49654;51.142;14.924;2024-02-23T03:02:16;2.20;;;1.23;;
63499;SDS011;49654;51.142;14.924;2024-02-23T03:04:46;2.13;;;0.98;;
63499;SDS011;49654;51.142;14.924;2024-02-23T03:07:13;2.60;;;1.20;;
63499;SDS011;49654;51.142;14.924;2024-02-23T03:09:40;1.15;;;1.00;;
63499;SDS011;49654;51.142;14.924;2024-02-23T03:12:07;1.30;;;1.20;;
63499;SDS011;49654;51.142;14.924;2024-02-23T03:14:34;2.05;;;1.25;;
63499;SDS011;49654;51.142;14.924;2024-02-23T03:17:04;1.20;;;1.00;;
63499;SDS011;49654;51.142;14.924;2024-02-23T03:19:31;1.10;;;1.00;;
63499;SDS011;49654;51.142;14.924;2024-02-23T03:21:58;1.38;;;1.08;;
63499;SDS011;49654;51.142;14.924;2024-02-23T03:24:25;1.52;;;1.10;;
63499;SDS011;49654;51.142;14.924;2024-02-23T03:26:52;1.38;;;1.17;;
63499;SDS011;49654;51.142;14.924;2024-02-23T03:29:19;1.35;;;1.17;;
63499;SDS011;49654;51.142;14.924;2024-02-23T03:31:47;1.55;;;1.00;;
63499;SDS011;49654;51.142;14.924;2024-02-23T03:34:15;1.55;;;1.40;;
63499;SDS011;49654;51.142;14.924;2024-02-23T03:36:52;1.48;;;1.10;;
63499;SDS011;49654;51.142;14.924;2024-02-23T03:39:18;1.23;;;1.10;;
63499;SDS011;49654;51.142;14.924;2024-02-23T03:41:45;1.40;;;1.10;;
63499;SDS011;49654;51.142;14.924;2024-02-23T03:44:12;1.95;;;1.10;;
63499;SDS011;49654;51.142;14.924;2024-02-23T03:46:39;1.40;;;1.20;;
63499;SDS011;49654;51.142;14.924;2024-02-23T03:49:06;1.50;;;1.30;;
63499;SDS011;49654;51.142;14.924;2024-02-23T03:51:35;1.63;;;1.10;;
63499;SDS011;49654;51.142;14.924;2024-02-23T03:54:04;1.00;;;0.95;;
63499;SDS011;49654;51.142;14.924;2024-02-23T03:56:37;1.40;;;1.08;;
63499;SDS011;49654;51.142;14.924;2024-02-23T03:59:04;2.63;;;1.10;;
63499;SDS011;49654;51.142;14.924;2024-02-23T04:01:31;1.33;;;1.20;;
63499;SDS011;49654;51.142;14.924;2024-02-23T04:03:58;1.75;;;1.30;;
63499;SDS011;49654;51.142;14.924;2024-02-23T04:06:25;1.30;;;1.10;;
63499;SDS011;49654;51.142;14.924;2024-02-23T04:08:53;1.50;;;0.95;;
63499;SDS011;49654;51.142;14.924;2024-02-23T04:11:20;1.10;;;1.00;;
63499;SDS011;49654;51.142;14.924;2024-02-23T04:13:47;1.20;;;0.95;;
63499;SDS011;49654;51.142;14.924;2024-02-23T04:16:14;2.80;;;1.10;;
63499;SDS011;49654;51.142;14.924;2024-02-23T04:18:41;1.10;;;0.90;;
63499;SDS011;49654;51.142;14.924;2024-02-23T04:21:08;0.93;;;0.93;;
63499;SDS011;49654;51.142;14.924;2024-02-23T04:23:35;1.48;;;1.00;;
63499;SDS011;49654;51.142;14.924;2024-02-23T04:26:04;0.80;;;0.80;;
63499;SDS011;49654;51.142;14.924;2024-02-23T04:28:30;1.73;;;1.02;;
63499;SDS011;49654;51.142;14.924;2024-02-23T04:30:59;1.45;;;0.98;;
63499;SDS011;49654;51.142;14.924;2024-02-23T04:33:26;1.40;;;0.90;;
63499;SDS011;49654;51.142;14.924;2024-02-23T04:35:53;0.77;;;0.77;;
63499;SDS011;49654;51.142;14.924;2024-02-23T04:38:20;1.00;;;0.90;;
63499;SDS011;49654;51.142;14.924;2024-02-23T04:40:47;1.42;;;0.88;;
63499;SDS011;49654;51.142;14.924;2024-02-23T04:43:15;1.17;;;1.02;;
63499;SDS011;49654;51.142;14.924;2024-02-23T04:45:42;0.82;;;0.77;;
63499;SDS011;49654;51.142;14.924;2024-02-23T04:48:09;1.55;;;0.63;;
63499;SDS011;49654;51.142;14.924;2024-02-23T04:50:36;2.15;;;0.88;;
63499;SDS011;49654;51.142;14.924;2024-02-23T04:53:03;1.35;;;0.75;;
63499;SDS011;49654;51.142;14.924;2024-02-23T04:55:30;0.90;;;0.90;;
63499;SDS011;49654;51.142;14.924;2024-02-23T04:57:57;0.75;;;0.73;;
63499;SDS011;49654;51.142;14.924;2024-02-23T05:00:25;1.65;;;0.90;;
63499;SDS011;49654;51.142;14.924;2024-02-23T05:02:58;1.00;;;0.70;;
63499;SDS011;49654;51.142;14.924;2024-02-23T05:05:25;0.95;;;0.80;;
63499;SDS011;49654;51.142;14.924;2024-02-23T05:07:52;2.20;;;1.05;;
63499;SDS011;49654;51.142;14.924;2024-02-23T05:10:19;2.67;;;1.00;;
63499;SDS011;49654;51.142;14.924;2024-02-23T05:12:46;1.20;;;0.90;;
63499;SDS011;49654;51.142;14.924;2024-02-23T05:15:13;0.85;;;0.70;;
63499;SDS011;49654;51.142;14.924;2024-02-23T05:17:41;1.98;;;0.98;;
63499;SDS011;49654;51.142;14.924;2024-02-23T05:20:09;1.00;;;0.73;;
63499;SDS011;49654;51.142;14.924;2024-02-23T05:22:36;1.52;;;1.02;;
63499;SDS011;49654;51.142;14.924;2024-02-23T05:25:05;1.17;;;0.60;;
63499;SDS011;49654;51.142;14.924;2024-02-23T05:27:32;1.02;;;0.70;;
63499;SDS011;49654;51.142;14.924;2024-02-23T05:29:59;0.68;;;0.60;;
63499;SDS011;49654;51.142;14.924;2024-02-23T05:32:26;0.88;;;0.60;;
63499;SDS011;49654;51.142;14.924;2024-02-23T05:34:54;1.30;;;0.40;;
63499;SDS011;49654;51.142;14.924;2024-02-23T05:37:22;0.65;;;0.43;;
63499;SDS011;49654;51.142;14.924;2024-02-23T05:39:49;0.63;;;0.55;;
63499;SDS011;49654;51.142;14.924;2024-02-23T05:42:16;1.50;;;0.63;;
63499;SDS011;49654;51.142;14.924;2024-02-23T05:44:43;0.85;;;0.68;;
63499;SDS011;49654;51.142;14.924;2024-02-23T05:47:10;0.50;;;0.40;;
63499;SDS011;49654;51.142;14.924;2024-02-23T05:49:39;1.50;;;0.40;;
63499;SDS011;49654;51.142;14.924;2024-02-23T05:52:07;1.63;;;0.47;;
63499;SDS011;49654;51.142;14.924;2024-02-23T05:54:35;1.20;;;0.50;;
63499;SDS011;49654;51.142;14.924;2024-02-23T05:57:02;1.48;;;0.65;;
63499;SDS011;49654;51.142;14.924;2024-02-23T05:59:29;3.15;;;0.90;;
63499;SDS011;49654;51.142;14.924;2024-02-23T06:01:56;0.77;;;0.68;;
63499;SDS011;49654;51.142;14.924;2024-02-23T06:04:23;4.05;;;0.82;;
63499;SDS011;49654;51.142;14.924;2024-02-23T06:06:50;2.60;;;2.20;;
63499;SDS011;49654;51.142;14.924;2024-02-23T06:09:18;1.05;;;0.60;;
63499;SDS011;49654;51.142;14.924;2024-02-23T06:11:45;0.80;;;0.40;;
63499;SDS011;49654;51.142;14.924;2024-02-23T06:14:12;1.10;;;0.52;;
63499;SDS011;49654;51.142;14.924;2024-02-23T06:16:39;2.50;;;0.50;;
63499;SDS011;49654;51.142;14.924;2024-02-23T06:19:07;0.52;;;0.45;;
63499;SDS011;49654;51.142;14.924;2024-02-23T06:21:35;1.85;;;0.65;;
63499;SDS011;49654;51.142;14.924;2024-02-23T06:24:02;1.27;;;0.50;;
63499;SDS011;49654;51.142;14.924;2024-02-23T06:26:31;2.50;;;0.50;;
63499;SDS011;49654;51.142;14.924;2024-02-23T06:28:58;1.45;;;0.52;;
63499;SDS011;49654;51.142;14.924;2024-02-23T06:31:25;1.05;;;0.50;;
63499;SDS011;49654;51.142;14.924;2024-02-23T06:33:52;0.70;;;0.60;;
63499;SDS011;49654;51.142;14.924;2024-02-23T06:36:19;4.80;;;0.60;;
63499;SDS011;49654;51.142;14.924;2024-02-23T06:38:45;1.23;;;0.60;;
63499;SDS011;49654;51.142;14.924;2024-02-23T06:41:13;1.17;;;0.40;;
63499;SDS011;49654;51.142;14.924;2024-02-23T06:43:41;1.13;;;0.55;;
63499;SDS011;49654;51.142;14.924;2024-02-23T06:46:08;0.50;;;0.50;;
63499;SDS011;49654;51.142;14.924;2024-02-23T06:48:36;1.00;;;0.47;;
63499;SDS011;49654;51.142;14.924;2024-02-23T06:51:03;1.15;;;0.52;;
63499;SDS011;49654;51.142;14.924;2024-02-23T06:53:30;1.75;;;0.63;;
63499;SDS011;49654;51.142;14.924;2024-02-23T06:55:57;0.73;;;0.55;;
63499;SDS011;49654;51.142;14.924;2024-02-23T06:58:26;0.57;;;0.57;;
63499;SDS011;49654;51.142;14.924;2024-02-23T07:00:54;3.28;;;0.80;;
63499;SDS011;49654;51.142;14.924;2024-02-23T07:03:21;1.08;;;0.55;;
63499;SDS011;49654;51.142;14.924;2024-02-23T07:05:48;2.42;;;0.50;;
63499;SDS011;49654;51.142;14.924;2024-02-23T07:08:15;0.75;;;0.60;;
63499;SDS011;49654;51.142;14.924;2024-02-23T07:10:42;2.72;;;0.45;;
63499;SDS011;49654;51.142;14.924;2024-02-23T07:13:09;0.80;;;0.52;;
63499;SDS011;49654;51.142;14.924;2024-02-23T07:15:36;1.17;;;0.63;;
63499;SDS011;49654;51.142;14.924;2024-02-23T07:18:05;2.53;;;0.63;;
63499;SDS011;49654;51.142;14.924;2024-02-23T07:20:34;1.48;;;0.60;;
63499;SDS011;49654;51.142;14.924;2024-02-23T07:23:02;1.45;;;0.50;;
63499;SDS011;49654;51.142;14.924;2024-02-23T07:25:29;0.95;;;0.60;;
63499;SDS011;49654;51.142;14.924;2024-02-23T07:27:56;1.13;;;0.55;;
63499;SDS011;49654;51.142;14.924;2024-02-23T07:30:24;1.30;;;0.60;;
63499;SDS011;49654;51.142;14.924;2024-02-23T07:32:51;1.92;;;0.68;;
63499;SDS011;49654;51.142;14.924;2024-02-23T07:35:19;1.35;;;0.50;;
63499;SDS011;49654;51.142;14.924;2024-02-23T07:37:46;0.75;;;0.50;;
63499;SDS011;49654;51.142;14.924;2024-02-23T07:40:13;0.73;;;0.60;;
63499;SDS011;49654;51.142;14.924;2024-02-23T07:42:40;1.13;;;0.50;;
63499;SDS011;49654;51.142;14.924;2024-02-23T07:45:07;0.70;;;0.32;;
63499;SDS011;49654;51.142;14.924;2024-02-23T07:47:35;1.20;;;0.55;;
63499;SDS011;49654;51.142;14.924;2024-02-23T07:50:02;1.30;;;0.50;;
63499;SDS011;49654;51.142;14.924;2024-02-23T07:52:30;0.98;;;0.43;;
63499;SDS011;49654;51.142;14.924;2024-02-23T07:54:57;1.73;;;0.63;;
63499;SDS011;49654;51.142;14.924;2024-02-23T07:57:25;1.35;;;0.68;;
63499;SDS011;49654;51.142;14.924;2024-02-23T07:59:52;1.02;;;0.57;;
63499;SDS011;49654;51.142;14.924;2024-02-23T08:02:19;1.02;;;0.63;;
63499;SDS011;49654;51.142;14.924;2024-02-23T08:04:46;0.70;;;0.60;;
63499;SDS011;49654;51.142;14.924;2024-02-23T08:07:15;2.53;;;0.95;;
63499;SDS011;49654;51.142;14.924;2024-02-23T08:09:43;2.42;;;0.60;;
63499;SDS011;49654;51.142;14.924;2024-02-23T08:12:10;0.60;;;0.60;;
63499;SDS011;49654;51.142;14.924;2024-02-23T08:14:39;1.75;;;0.50;;
63499;SDS011;49654;51.142;14.924;2024-02-23T08:17:06;0.60;;;0.60;;
63499;SDS011;49654;51.142;14.924;2024-02-23T08:19:33;1.77;;;0.90;;
63499;SDS011;49654;51.142;14.924;2024-02-23T08:22:00;3.42;;;0.90;;
63499;SDS011;49654;51.142;14.924;2024-02-23T08:24:27;1.50;;;0.80;;
63499;SDS011;49654;51.142;14.924;2024-02-23T08:26:55;1.77;;;0.90;;
63499;SDS011;49654;51.142;14.924;2024-02-23T08:29:22;1.40;;;0.68;;
63499;SDS011;49654;51.142;14.924;2024-02-23T08:31:49;0.65;;;0.60;;
63499;SDS011;49654;51.142;14.924;2024-02-23T08:34:16;4.15;;;0.80;;
63499;SDS011;49654;51.142;14.924;2024-02-23T08:36:43;1.70;;;0.75;;
63499;SDS011;49654;51.142;14.924;2024-02-23T08:39:10;1.02;;;0.70;;
63499;SDS011;49654;51.142;14.924;2024-02-23T08:41:38;0.95;;;0.77;;
63499;SDS011;49654;51.142;14.924;2024-02-23T08:44:06;2.10;;;0.95;;
63499;SDS011;49654;51.142;14.924;2024-02-23T08:46:33;0.82;;;0.68;;
63499;SDS011;49654;51.142;14.924;2024-02-23T08:49:00;2.38;;;1.08;;
63499;SDS011;49654;51.142;14.924;2024-02-23T08:51:27;1.75;;;0.70;;
63499;SDS011;49654;51.142;14.924;2024-02-23T08:53:54;1.08;;;0.60;;
63499;SDS011;49654;51.142;14.924;2024-02-23T08:56:22;2.08;;;0.68;;
63499;SDS011;49654;51.142;14.924;2024-02-23T08:58:49;0.90;;;0.70;;
63499;SDS011;49654;51.142;14.924;2024-02-23T09:01:17;1.50;;;0.73;;
63499;SDS011;49654;51.142;14.924;2024-02-23T09:03:45;2.13;;;0.70;;
63499;SDS011;49654;51.142;14.924;2024-02-23T09:06:12;1.27;;;0.95;;
63499;SDS011;49654;51.142;14.924;2024-02-23T09:08:40;0.98;;;0.88;;
63499;SDS011;49654;51.142;14.924;2024-02-23T09:11:07;1.08;;;0.70;;
63499;SDS011;49654;51.142;14.924;2024-02-23T09:13:34;2.10;;;0.80;;
63499;SDS011;49654;51.142;14.924;2024-02-23T09:16:01;2.45;;;1.48;;
63499;SDS011;49654;51.142;14.924;2024-02-23T09:18:29;1.75;;;0.73;;
63499;SDS011;49654;51.142;14.924;2024-02-23T09:20:56;2.10;;;0.80;;
63499;SDS011;49654;51.142;14.924;2024-02-23T09:23:23;1.77;;;1.00;;
63499;SDS011;49654;51.142;14.924;2024-02-23T09:25:50;1.23;;;0.75;;
63499;SDS011;49654;51.142;14.924;2024-02-23T09:28:17;2.08;;;0.80;;
63499;SDS011;49654;51.142;14.924;2024-02-23T09:30:44;1.60;;;0.70;;
63499;SDS011;49654;51.142;14.924;2024-02-23T09:33:11;0.80;;;0.50;;
63499;SDS011;49654;51.142;14.924;2024-02-23T09:35:39;1.73;;;0.90;;
63499;SDS011;49654;51.142;14.924;2024-02-23T09:38:06;1.27;;;0.70;;
63499;SDS011;49654;51.142;14.924;2024-02-23T09:40:33;1.15;;;0.73;;
63499;SDS011;49654;51.142;14.924;2024-02-23T09:43:00;1.83;;;0.70;;
63499;SDS011;49654;51.142;14.924;2024-02-23T09:45:27;1.80;;;0.70;;
63499;SDS011;49654;51.142;14.924;2024-02-23T09:47:55;2.10;;;0.75;;
63499;SDS011;49654;51.142;14.924;2024-02-23T09:50:23;1.15;;;0.65;;
63499;SDS011;49654;51.142;14.924;2024-02-23T09:52:52;1.25;;;0.60;;
63499;SDS011;49654;51.142;14.924;2024-02-23T09:55:20;1.92;;;0.88;;
63499;SDS011;49654;51.142;14.924;2024-02-23T09:57:49;1.77;;;0.68;;
63499;SDS011;49654;51.142;14.924;2024-02-23T10:00:20;0.70;;;0.70;;
63499;SDS011;49654;51.142;14.924;2024-02-23T10:02:47;2.65;;;0.80;;
63499;SDS011;49654;51.142;14.924;2024-02-23T10:05:14;1.10;;;0.65;;
63499;SDS011;49654;51.142;14.924;2024-02-23T10:07:43;0.70;;;0.50;;
63499;SDS011;49654;51.142;14.924;2024-02-23T10:10:12;1.15;;;0.60;;
63499;SDS011;49654;51.142;14.924;2024-02-23T10:12:39;0.68;;;0.60;;
63499;SDS011;49654;51.142;14.924;2024-02-23T10:15:07;1.70;;;0.75;;
63499;SDS011;49654;51.142;14.924;2024-02-23T10:17:34;1.02;;;0.70;;
63499;SDS011;49654;51.142;14.924;2024-02-23T10:20:01;3.70;;;1.05;;
63499;SDS011;49654;51.142;14.924;2024-02-23T10:22:30;1.38;;;0.75;;
63499;SDS011;49654;51.142;14.924;2024-02-23T10:24:57;1.20;;;0.90;;
63499;SDS011;49654;51.142;14.924;2024-02-23T10:27:25;1.83;;;0.70;;
63499;SDS011;49654;51.142;14.924;2024-02-23T10:29:53;1.27;;;0.80;;
63499;SDS011;49654;51.142;14.924;2024-02-23T10:32:20;1.20;;;0.80;;
63499;SDS011;49654;51.142;14.924;2024-02-23T10:34:48;0.80;;;0.50;;
63499;SDS011;49654;51.142;14.924;2024-02-23T10:37:17;1.08;;;0.60;;
63499;SDS011;49654;51.142;14.924;2024-02-23T10:39:44;1.42;;;0.70;;
63499;SDS011;49654;51.142;14.924;2024-02-23T10:42:12;1.80;;;0.60;;
63499;SDS011;49654;51.142;14.924;2024-02-23T10:44:40;1.05;;;0.73;;
63499;SDS011;49654;51.142;14.924;2024-02-23T10:47:08;1.48;;;0.85;;
63499;SDS011;49654;51.142;14.924;2024-02-23T10:49:35;1.83;;;0.77;;
63499;SDS011;49654;51.142;14.924;2024-02-23T10:52:06;2.63;;;0.80;;
63499;SDS011;49654;51.142;14.924;2024-02-23T10:54:34;2.85;;;0.80;;
63499;SDS011;49654;51.142;14.924;2024-02-23T10:57:02;1.25;;;0.68;;
63499;SDS011;49654;51.142;14.924;2024-02-23T10:59:29;4.32;;;0.90;;
63499;SDS011;49654;51.142;14.924;2024-02-23T11:01:58;1.25;;;0.55;;
63499;SDS011;49654;51.142;14.924;2024-02-23T11:04:26;0.82;;;0.40;;
63499;SDS011;49654;51.142;14.924;2024-02-23T11:06:55;2.17;;;0.75;;
63499;SDS011;49654;51.142;14.924;2024-02-23T11:09:24;1.08;;;0.70;;
63499;SDS011;49654;51.142;14.924;2024-02-23T11:11:54;1.17;;;0.70;;
63499;SDS011;49654;51.142;14.924;2024-02-23T11:14:31;2.97;;;0.80;;
63499;SDS011;49654;51.142;14.924;2024-02-23T11:17:00;1.20;;;0.80;;
63499;SDS011;49654;51.142;14.924;2024-02-23T11:19:34;1.67;;;0.80;;
63499;SDS011;49654;51.142;14.924;2024-02-23T11:22:02;1.13;;;0.70;;
63499;SDS011;49654;51.142;14.924;2024-02-23T11:24:30;1.98;;;0.85;;
63499;SDS011;49654;51.142;14.924;2024-02-23T11:26:58;1.27;;;0.50;;
63499;SDS011;49654;51.142;14.924;2024-02-23T11:29:26;1.55;;;0.60;;
63499;SDS011;49654;51.142;14.924;2024-02-23T11:31:54;1.48;;;0.65;;
63499;SDS011;49654;51.142;14.924;2024-02-23T11:34:27;1.85;;;0.88;;
63499;SDS011;49654;51.142;14.924;2024-02-23T11:36:54;0.98;;;0.80;;
63499;SDS011;49654;51.142;14.924;2024-02-23T11:39:21;2.42;;;1.08;;
63499;SDS011;49654;51.142;14.924;2024-02-23T11:41:49;2.38;;;0.90;;
63499;SDS011;49654;51.142;14.924;2024-02-23T11:44:16;1.75;;;0.88;;
63499;SDS011;49654;51.142;14.924;2024-02-23T11:46:44;2.00;;;0.95;;
63499;SDS011;49654;51.142;14.924;2024-02-23T11:49:10;2.50;;;0.90;;
63499;SDS011;49654;51.142;14.924;2024-02-23T11:51:38;0.85;;;0.75;;
63499;SDS011;49654;51.142;14.924;2024-02-23T11:54:06;0.60;;;0.60;;
63499;SDS011;49654;51.142;14.924;2024-02-23T11:56:33;1.80;;;0.90;;
63499;SDS011;49654;51.142;14.924;2024-02-23T11:59:00;2.40;;;0.88;;
63499;SDS011;49654;51.142;14.924;2024-02-23T12:01:28;1.88;;;0.98;;
63499;SDS011;49654;51.142;14.924;2024-02-23T12:03:55;2.22;;;1.00;;
63499;SDS011;49654;51.142;14.924;2024-02-23T12:06:22;2.38;;;1.00;;
63499;SDS011;49654;51.142;14.924;2024-02-23T12:08:51;1.42;;;1.05;;
63499;SDS011;49654;51.142;14.924;2024-02-23T12:11:18;2.38;;;1.05;;
63499;SDS011;49654;51.142;14.924;2024-02-23T12:13:45;2.95;;;1.08;;
63499;SDS011;49654;51.142;14.924;2024-02-23T12:16:14;2.03;;;1.10;;
63499;SDS011;49654;51.142;14.924;2024-02-23T12:18:41;2.75;;;1.15;;
63499;SDS011;49654;51.142;14.924;2024-02-23T12:21:08;1.35;;;0.85;;
63499;SDS011;49654;51.142;14.924;2024-02-23T12:23:42;2.58;;;1.05;;
63499;SDS011;49654;51.142;14.924;2024-02-23T12:26:12;2.03;;;0.90;;
63499;SDS011;49654;51.142;14.924;2024-02-23T12:28:40;1.85;;;1.08;;
63499;SDS011;49654;51.142;14.924;2024-02-23T12:31:07;2.30;;;0.95;;
63499;SDS011;49654;51.142;14.924;2024-02-23T12:33:35;0.80;;;0.80;;
63499;SDS011;49654;51.142;14.924;2024-02-23T12:36:03;2.00;;;1.05;;
63499;SDS011;49654;51.142;14.924;2024-02-23T12:38:31;2.28;;;1.02;;
63499;SDS011;49654;51.142;14.924;2024-02-23T12:40:59;1.35;;;0.80;;
63499;SDS011;49654;51.142;14.924;2024-02-23T12:43:27;2.63;;;0.93;;
63499;SDS011;49654;51.142;14.924;2024-02-23T12:45:55;3.30;;;1.08;;
63499;SDS011;49654;51.142;14.924;2024-02-23T12:48:22;1.23;;;0.80;;
63499;SDS011;49654;51.142;14.924;2024-02-23T12:50:50;1.98;;;1.20;;
63499;SDS011;49654;51.142;14.924;2024-02-23T12:53:30;3.05;;;1.10;;
63499;SDS011;49654;51.142;14.924;2024-02-23T12:55:58;2.65;;;1.10;;
63499;SDS011;49654;51.142;14.924;2024-02-23T12:58:26;1.00;;;0.88;;
63499;SDS011;49654;51.142;14.924;2024-02-23T13:00:54;5.18;;;1.20;;
63499;SDS011;49654;51.142;14.924;2024-02-23T13:03:22;1.73;;;1.00;;
63499;SDS011;49654;51.142;14.924;2024-02-23T13:05:49;2.10;;;1.20;;
63499;SDS011;49654;51.142;14.924;2024-02-23T13:08:17;1.00;;;0.80;;
63499;SDS011;49654;51.142;14.924;2024-02-23T13:10:44;1.92;;;1.10;;
63499;SDS011;49654;51.142;14.924;2024-02-23T13:13:11;2.05;;;1.10;;
63499;SDS011;49654;51.142;14.924;2024-02-23T13:15:39;2.42;;;1.08;;
63499;SDS011;49654;51.142;14.924;2024-02-23T13:18:06;4.20;;;1.23;;
63499;SDS011;49654;51.142;14.924;2024-02-23T13:20:34;2.05;;;1.15;;
63499;SDS011;49654;51.142;14.924;2024-02-23T13:23:01;5.78;;;1.13;;
63499;SDS011;49654;51.142;14.924;2024-02-23T13:25:28;2.60;;;1.00;;
63499;SDS011;49654;51.142;14.924;2024-02-23T13:27:54;2.75;;;0.98;;
63499;SDS011;49654;51.142;14.924;2024-02-23T13:30:21;1.80;;;1.00;;
63499;SDS011;49654;51.142;14.924;2024-02-23T13:32:50;1.48;;;1.00;;
63499;SDS011;49654;51.142;14.924;2024-02-23T13:35:17;3.20;;;1.23;;
63499;SDS011;49654;51.142;14.924;2024-02-23T13:37:44;2.85;;;1.38;;
63499;SDS011;49654;51.142;14.924;2024-02-23T13:40:11;3.17;;;1.30;;
63499;SDS011;49654;51.142;14.924;2024-02-23T13:42:38;1.92;;;1.25;;
63499;SDS011;49654;51.142;14.924;2024-02-23T13:45:06;2.17;;;1.42;;
63499;SDS011;49654;51.142;14.924;2024-02-23T13:47:34;2.58;;;1.30;;
63499;SDS011;49654;51.142;14.924;2024-02-23T13:50:03;2.22;;;1.20;;
63499;SDS011;49654;51.142;14.924;2024-02-23T13:52:31;5.03;;;1.45;;
63499;SDS011;49654;51.142;14.924;2024-02-23T13:54:59;4.40;;;1.60;;
63499;SDS011;49654;51.142;14.924;2024-02-23T13:57:26;2.58;;;1.30;;
63499;SDS011;49654;51.142;14.924;2024-02-23T13:59:53;2.03;;;1.20;;
63499;SDS011;49654;51.142;14.924;2024-02-23T14:02:24;1.98;;;1.23;;
63499;SDS011;49654;51.142;14.924;2024-02-23T14:04:52;4.53;;;1.23;;
63499;SDS011;49654;51.142;14.924;2024-02-23T14:07:20;3.63;;;1.10;;
63499;SDS011;49654;51.142;14.924;2024-02-23T14:09:47;2.45;;;1.17;;
63499;SDS011;49654;51.142;14.924;2024-02-23T14:12:14;3.85;;;1.27;;
63499;SDS011;49654;51.142;14.924;2024-02-23T14:14:43;2.05;;;1.13;;
63499;SDS011;49654;51.142;14.924;2024-02-23T14:17:10;2.10;;;1.20;;
63499;SDS011;49654;51.142;14.924;2024-02-23T14:19:37;3.00;;;1.63;;
63499;SDS011;49654;51.142;14.924;2024-02-23T14:22:04;2.05;;;1.15;;
63499;SDS011;49654;51.142;14.924;2024-02-23T14:24:33;1.90;;;1.00;;
63499;SDS011;49654;51.142;14.924;2024-02-23T14:27:00;3.30;;;1.20;;
63499;SDS011;49654;51.142;14.924;2024-02-23T14:29:27;2.28;;;0.88;;
63499;SDS011;49654;51.142;14.924;2024-02-23T14:31:54;2.65;;;1.10;;
63499;SDS011;49654;51.142;14.924;2024-02-23T14:34:21;1.92;;;0.90;;